Time;durP1;ratioP1;P1;durP2;ratioP2;P2;SDS_P1;SDS_P2;PMS_P1;PMS_P2;Temp;Humidity;BMP_temperature;BMP_pressure;BME280_temperature;BME280_humidity;BME280_pressure;Samples;Min_cycle;Max_cycle;Signal;HPM_P1;HPM_P2
2021/05/24 00:01:40;;;;;;;6.50;2.60;;;;;;;14.77;65.62;99351.72;1565005;91;20997;-67
2021/05/24 00:04:07;;;;;;;4.70;2.55;;;;;;;14.71;67.09;99364.16;1565112;91;21087;-68
2021/05/24 00:06:33;;;;;;;8.03;2.25;;;;;;;14.62;67.87;99376.71;1564929;91;21060;-67
2021/05/24 00:09:03;;;;;;;2.90;1.50;;;;;;;14.56;68.64;99375.33;1564882;91;21579;-67
2021/05/24 00:11:31;;;;;;;4.75;1.80;;;;;;;14.44;69.46;99383.05;1589947;90;21551;-67
2021/05/24 00:13:57;;;;;;;6.35;1.75;;;;;;;14.34;69.63;99393.73;1590357;90;20940;-67
2021/05/24 00:16:25;;;;;;;3.92;2.00;;;;;;;14.26;69.74;99394.66;1590444;90;21112;-67
2021/05/24 00:18:53;;;;;;;7.03;2.17;;;;;;;14.18;70.57;99404.08;1590172;90;20996;-67
2021/05/24 00:21:19;;;;;;;4.00;2.15;;;;;;;14.14;72.05;99402.34;1569270;90;21012;-67
2021/05/24 00:23:47;;;;;;;5.30;1.98;;;;;;;14.11;74.62;99404.41;1590229;90;20972;-67
2021/05/24 00:26:15;;;;;;;3.15;1.82;;;;;;;14.05;74.52;99414.05;1590315;90;20948;-67
2021/05/24 00:28:41;;;;;;;9.43;2.20;;;;;;;13.98;75.83;99404.14;1590384;90;21039;-67
2021/05/24 00:31:10;;;;;;;6.28;2.17;;;;;;;13.94;77.48;99408.16;1590305;90;21003;-67
2021/05/24 00:33:37;;;;;;;5.87;1.95;;;;;;;13.89;78.99;99400.91;1590346;90;21000;-67
2021/05/24 00:36:04;;;;;;;4.85;2.00;;;;;;;13.84;80.10;99395.63;1590254;90;21028;-67
2021/05/24 00:38:32;;;;;;;6.12;1.65;;;;;;;13.77;80.77;99391.25;1590232;90;21135;-68
2021/05/24 00:40:59;;;;;;;4.97;2.05;;;;;;;13.72;81.66;99388.70;1589437;88;21190;-67
2021/05/24 00:43:25;;;;;;;8.28;2.65;;;;;;;13.68;82.34;99397.99;1564981;91;20961;-67
2021/05/24 00:45:52;;;;;;;5.28;2.02;;;;;;;13.59;83.14;99399.45;1564999;91;21565;-67
2021/05/24 00:48:18;;;;;;;5.97;2.27;;;;;;;13.53;84.10;99398.86;1564937;91;20949;-68
2021/05/24 00:50:46;;;;;;;8.18;2.47;;;;;;;13.47;84.75;99403.55;1564881;91;20917;-67
2021/05/24 00:53:15;;;;;;;4.45;2.80;;;;;;;13.41;85.28;99407.65;1565010;91;21103;-67
2021/05/24 00:55:41;;;;;;;7.65;2.08;;;;;;;13.32;85.87;99403.59;1565159;91;21024;-67
2021/05/24 00:58:07;;;;;;;5.90;1.87;;;;;;;13.27;86.41;99401.63;1564954;91;20933;-67
2021/05/24 01:00:41;;;;;;;7.45;2.25;;;;;;;13.24;87.26;99400.93;1562446;91;21100;-67
2021/05/24 01:03:08;;;;;;;4.17;2.27;;;;;;;13.21;87.49;99405.97;1564998;91;21404;-67
2021/05/24 01:05:35;;;;;;;6.42;2.10;;;;;;;13.15;87.56;99408.66;1562683;91;21680;-67
2021/05/24 01:08:04;;;;;;;4.90;2.22;;;;;;;13.07;87.88;99405.97;1565016;91;21068;-67
2021/05/24 01:10:31;;;;;;;5.00;2.42;;;;;;;13.02;88.72;99408.92;1579467;90;21036;-68
2021/05/24 01:12:59;;;;;;;6.50;2.42;;;;;;;12.98;89.66;99408.78;1590317;90;20936;-67
2021/05/24 01:15:25;;;;;;;6.30;2.60;;;;;;;12.97;90.38;99408.55;1590338;90;20924;-67
2021/05/24 01:17:54;;;;;;;4.85;2.25;;;;;;;12.98;91.04;99406.59;1590237;89;21772;-67
2021/05/24 01:20:22;;;;;;;4.00;2.45;;;;;;;12.95;91.17;99405.32;1590296;90;21020;-67
2021/05/24 01:25:26;;;;;;;7.40;3.00;;;;;;;12.93;91.39;99407.60;1546333;90;21590;-68
2021/05/24 01:27:52;;;;;;;5.90;2.50;;;;;;;12.89;91.32;99408.84;1600242;89;21091;-67
2021/05/24 01:30:20;;;;;;;5.20;2.37;;;;;;;12.88;91.00;99409.17;1619040;87;21839;-68
2021/05/24 01:32:48;;;;;;;8.23;2.60;;;;;;;12.85;91.19;99407.89;1600014;88;21033;-67
2021/05/24 01:35:15;;;;;;;8.75;3.45;;;;;;;12.84;91.49;99408.23;1619254;88;20951;-67
2021/05/24 01:37:42;;;;;;;6.83;2.37;;;;;;;12.83;91.70;99413.50;1600239;89;21028;-67
2021/05/24 01:40:11;;;;;;;6.87;2.60;;;;;;;12.82;91.87;99407.75;1619080;88;20963;-67
2021/05/24 01:42:37;;;;;;;5.97;2.77;;;;;;;12.82;92.19;99411.89;1619101;88;21848;-68
2021/05/24 01:45:08;;;;;;;9.38;3.25;;;;;;;12.81;92.26;99410.27;1618937;88;21032;-67
2021/05/24 01:47:34;;;;;;;6.80;3.20;;;;;;;12.80;92.15;99409.47;1619273;88;20963;-67
2021/05/24 01:50:01;;;;;;;6.58;3.30;;;;;;;12.77;92.12;99406.57;1619178;88;21010;-66
2021/05/24 01:52:27;;;;;;;5.62;3.50;;;;;;;12.76;92.24;99410.47;1619238;88;20963;-68
2021/05/24 01:54:54;;;;;;;5.45;3.75;;;;;;;12.73;92.25;99403.67;1619208;88;21754;-67
2021/05/24 01:57:20;;;;;;;6.67;3.42;;;;;;;12.71;92.12;99403.20;1618967;88;21019;-67
2021/05/24 01:59:47;;;;;;;8.63;3.72;;;;;;;12.69;92.23;99401.95;1619214;88;20960;-67
2021/05/24 02:02:15;;;;;;;6.95;3.70;;;;;;;12.66;92.33;99402.05;1604336;88;20974;-67
2021/05/24 02:04:42;;;;;;;6.72;3.55;;;;;;;12.65;92.52;99410.07;1600108;89;21040;-67
2021/05/24 02:07:09;;;;;;;11.88;3.98;;;;;;;12.62;92.53;99403.84;1619167;88;21068;-67
2021/05/24 02:09:37;;;;;;;6.50;3.40;;;;;;;12.59;92.78;99398.20;1566090;90;20913;-67
2021/05/24 02:12:07;;;;;;;9.10;3.62;;;;;;;12.57;93.13;99398.53;1592039;90;20961;-67
2021/05/24 02:14:33;;;;;;;7.37;3.42;;;;;;;12.56;93.36;99403.80;1600033;89;20969;-68
2021/05/24 02:17:00;;;;;;;9.33;4.00;;;;;;;12.55;93.67;99413.20;1619030;88;21015;-67
2021/05/24 02:19:27;;;;;;;9.60;4.03;;;;;;;12.53;94.03;99409.97;1600142;89;21531;-67
2021/05/24 02:21:56;;;;;;;9.83;4.00;;;;;;;12.51;94.17;99403.42;1619019;88;20943;-67
2021/05/24 02:24:23;;;;;;;8.90;3.70;;;;;;;12.48;94.28;99410.97;1600020;89;20937;-67
2021/05/24 02:26:50;;;;;;;8.98;3.80;;;;;;;12.46;94.54;99401.42;1619183;87;21149;-66
2021/05/24 02:29:17;;;;;;;5.83;3.70;;;;;;;12.42;94.71;99405.97;1612551;88;20988;-66
2021/05/24 02:31:44;;;;;;;4.10;3.55;;;;;;;12.38;95.03;99400.32;1601327;88;21093;-66
2021/05/24 02:34:10;;;;;;;6.60;3.50;;;;;;;12.34;95.36;99397.98;1601426;89;21658;-66
2021/05/24 02:36:38;;;;;;;9.60;3.77;;;;;;;12.33;95.60;99403.83;1601580;89;21013;-66
2021/05/24 02:39:08;;;;;;;8.45;3.05;;;;;;;12.32;95.82;99398.08;1601397;89;21014;-66
2021/05/24 02:41:38;;;;;;;8.00;4.10;;;;;;;12.31;96.03;99408.28;1578792;89;20944;-67
2021/05/24 02:44:06;;;;;;;5.00;3.17;;;;;;;12.28;96.21;99400.69;1601574;89;21081;-66
2021/05/24 02:46:34;;;;;;;8.60;2.90;;;;;;;12.25;96.39;99404.10;1601486;89;21004;-66
2021/05/24 02:49:00;;;;;;;5.33;2.80;;;;;;;12.21;96.69;99412.78;1601601;89;21040;-66
2021/05/24 02:51:27;;;;;;;5.83;2.75;;;;;;;12.17;96.90;99409.07;1601500;88;21030;-66
2021/05/24 02:53:54;;;;;;;8.23;2.70;;;;;;;12.12;97.08;99412.84;1601705;89;21507;-66
2021/05/24 02:56:21;;;;;;;4.53;2.52;;;;;;;12.09;97.32;99420.94;1601556;89;21824;-66
2021/05/24 02:58:48;;;;;;;6.25;2.50;;;;;;;12.07;97.61;99417.70;1601220;88;20965;-68
2021/05/24 03:01:14;;;;;;;6.05;2.83;;;;;;;12.04;97.93;99426.05;1601431;89;21124;-67
2021/05/24 03:03:41;;;;;;;5.35;2.10;;;;;;;11.99;98.02;99426.23;1601515;89;21674;-64
2021/05/24 03:06:08;;;;;;;7.33;2.62;;;;;;;11.97;98.43;99423.56;1576386;91;21522;-65
2021/05/24 03:08:35;;;;;;;4.25;2.50;;;;;;;11.94;98.66;99416.77;1601576;89;21098;-66
2021/05/24 03:11:01;;;;;;;8.15;3.08;;;;;;;11.95;98.89;99423.08;1601259;89;21058;-67
2021/05/24 03:13:29;;;;;;;3.77;2.30;;;;;;;11.94;99.31;99420.09;1581215;90;20954;-67
2021/05/24 03:15:56;;;;;;;7.67;2.72;;;;;;;11.90;99.34;99415.25;1601441;88;20957;-66
2021/05/24 03:18:23;;;;;;;7.47;3.20;;;;;;;11.89;99.47;99416.38;1601557;89;21020;-66
2021/05/24 03:20:49;;;;;;;5.20;2.58;;;;;;;11.89;99.70;99420.51;1601555;88;21966;-66
2021/05/24 03:23:16;;;;;;;14.40;2.85;;;;;;;11.88;99.88;99418.89;1601491;89;20936;-66
2021/05/24 03:25:43;;;;;;;6.33;3.35;;;;;;;11.88;100.00;99421.64;1603966;88;20984;-66
2021/05/24 03:28:09;;;;;;;6.35;2.72;;;;;;;11.87;100.00;99420.02;1608929;89;20944;-65
2021/05/24 03:30:35;;;;;;;7.65;3.25;;;;;;;11.88;100.00;99418.89;1608689;87;21015;-66
2021/05/24 03:33:02;;;;;;;6.37;3.02;;;;;;;11.89;100.00;99422.45;1608866;89;22243;-67
2021/05/24 03:35:29;;;;;;;7.17;2.95;;;;;;;11.89;100.00;99430.70;1608744;89;21023;-66
2021/05/24 03:37:56;;;;;;;7.92;2.72;;;;;;;11.85;100.00;99424.23;1592186;90;21005;-65
2021/05/24 03:40:23;;;;;;;8.95;2.98;;;;;;;11.83;100.00;99427.88;1608739;89;21052;-65
2021/05/24 03:42:49;;;;;;;10.63;3.85;;;;;;;11.82;100.00;99436.70;1609016;89;20945;-66
2021/05/24 03:45:21;;;;;;;7.87;3.50;;;;;;;11.84;100.00;99437.75;1592223;90;21851;-66
2021/05/24 03:47:47;;;;;;;7.42;3.50;;;;;;;11.84;100.00;99433.62;1608770;89;20900;-66
2021/05/24 03:50:14;;;;;;;9.48;3.70;;;;;;;11.83;100.00;99439.69;1608993;87;20944;-66
2021/05/24 03:52:40;;;;;;;7.10;4.28;;;;;;;11.84;100.00;99435.00;1592128;90;21049;-65
2021/05/24 03:55:09;;;;;;;5.50;3.60;;;;;;;11.83;100.00;99432.81;1608792;89;21496;-66
2021/05/24 03:57:36;;;;;;;9.40;3.50;;;;;;;11.81;100.00;99427.40;1609045;89;21683;-65
2021/05/24 04:00:08;;;;;;;6.60;3.80;;;;;;;11.79;100.00;99435.98;1592164;90;20987;-65
2021/05/24 04:02:41;;;;;;;4.15;3.12;;;;;;;11.76;100.00;99440.72;1608906;89;21151;-65
2021/05/24 04:05:16;;;;;;;5.00;3.20;;;;;;;11.74;100.00;99440.80;1608774;89;20980;-66
2021/05/24 04:07:38;;;;;;;6.92;3.83;;;;;;;11.69;100.00;99447.28;1581544;90;20982;-66
2021/05/24 04:10:07;;;;;;;5.95;3.10;;;;;;;11.68;100.00;99443.48;1608810;89;21168;-66
2021/05/24 04:12:34;;;;;;;7.08;3.17;;;;;;;11.66;100.00;99447.93;1608751;89;20964;-66
2021/05/24 04:15:01;;;;;;;6.08;3.52;;;;;;;11.64;100.00;99450.20;1592083;90;21048;-65
2021/05/24 04:17:30;;;;;;;5.85;3.30;;;;;;;11.63;100.00;99453.27;1608949;89;20964;-64
2021/05/24 04:19:58;;;;;;;5.42;3.50;;;;;;;11.62;100.00;99449.71;1608566;89;20928;-64
2021/05/24 04:22:25;;;;;;;5.67;3.47;;;;;;;11.58;100.00;99465.24;1608846;87;21124;-64
2021/05/24 04:24:51;;;;;;;5.15;3.33;;;;;;;11.59;100.00;99469.61;1591741;90;21121;-63
2021/05/24 04:27:18;;;;;;;6.05;3.33;;;;;;;11.59;100.00;99470.98;1608016;89;21488;-64
2021/05/24 04:29:44;;;;;;;5.65;3.35;;;;;;;11.57;100.00;99474.05;1608800;89;21023;-64
2021/05/24 04:32:11;;;;;;;5.58;3.10;;;;;;;11.55;100.00;99477.69;1608818;89;21024;-63
2021/05/24 04:34:37;;;;;;;5.95;3.10;;;;;;;11.55;100.00;99493.41;1608792;87;21019;-63
2021/05/24 04:37:06;;;;;;;6.35;3.37;;;;;;;11.54;100.00;99495.92;1608688;89;21033;-63
2021/05/24 04:39:32;;;;;;;9.73;4.20;;;;;;;11.52;100.00;99503.11;1608909;88;20984;-64
2021/05/24 04:42:00;;;;;;;10.45;3.45;;;;;;;11.50;100.00;99503.19;1608969;87;20955;-63
2021/05/24 04:44:27;;;;;;;10.18;3.95;;;;;;;11.49;100.00;99501.01;1609008;89;20936;-66
2021/05/24 04:46:54;;;;;;;6.75;3.25;;;;;;;11.49;100.00;99505.13;1608626;87;21098;-70
2021/05/24 04:49:20;;;;;;;8.88;3.92;;;;;;;11.51;100.00;99511.68;1586401;89;21617;-67
2021/05/24 04:51:47;;;;;;;5.87;3.50;;;;;;;11.55;100.00;99511.28;1608701;89;20924;-71
2021/05/24 04:54:13;;;;;;;5.40;3.35;;;;;;;11.57;100.00;99524.91;1608777;89;21044;-68
2021/05/24 04:56:40;;;;;;;6.97;3.52;;;;;;;11.57;100.00;99521.36;1608692;89;21048;-68
2021/05/24 04:59:08;;;;;;;7.40;3.30;;;;;;;11.55;100.00;99520.30;1608700;89;21095;-79
2021/05/24 05:01:34;;;;;;;4.33;3.10;;;;;;;11.55;100.00;99524.43;1607923;87;21051;-79
2021/05/24 05:04:01;;;;;;;4.47;2.77;;;;;;;11.57;100.00;99526.86;1607719;89;21665;-80
2021/05/24 05:06:27;;;;;;;5.12;2.90;;;;;;;11.62;100.00;99532.20;1607895;89;21095;-78
2021/05/24 05:08:54;;;;;;;7.75;3.20;;;;;;;11.66;100.00;99535.92;1608203;89;21058;-70
2021/05/24 05:11:21;;;;;;;7.70;2.90;;;;;;;11.68;100.00;99539.16;1608530;89;21509;-73
2021/05/24 05:13:48;;;;;;;12.70;3.10;;;;;;;11.72;100.00;99544.25;1608480;89;21661;-74
2021/05/24 05:16:14;;;;;;;7.00;2.85;;;;;;;11.76;100.00;99553.48;1611605;87;20968;-78
2021/05/24 05:18:40;;;;;;;8.23;3.00;;;;;;;11.81;100.00;99548.41;1633341;86;20998;-75
2021/05/24 05:21:07;;;;;;;3.75;2.60;;;;;;;11.82;100.00;99543.16;1633457;86;20931;-73
2021/05/24 05:23:33;;;;;;;6.95;3.17;;;;;;;11.85;100.00;99561.77;1616166;87;21589;-73
2021/05/24 05:26:00;;;;;;;5.08;2.40;;;;;;;11.85;100.00;99561.77;1607834;88;21001;-74
2021/05/24 05:28:27;;;;;;;8.55;2.80;;;;;;;11.85;99.95;99565.32;1601716;89;20942;-82
2021/05/24 05:30:53;;;;;;;5.85;2.67;;;;;;;11.84;100.00;99562.89;1601666;89;21000;-76
2021/05/24 05:33:20;;;;;;;5.55;2.35;;;;;;;11.85;100.00;99570.83;1600920;89;21000;-76
2021/05/24 05:35:48;;;;;;;5.42;2.90;;;;;;;11.90;100.00;99575.36;1579163;89;21840;-85
2021/05/24 05:38:15;;;;;;;4.95;2.58;;;;;;;11.97;100.00;99581.75;1599810;89;21057;-71
2021/05/24 05:40:47;;;;;;;5.58;2.70;;;;;;;12.05;100.00;99592.75;1601575;89;21027;-67
2021/05/24 05:43:12;;;;;;;4.62;2.33;;;;;;;12.11;100.00;99592.02;1601335;89;21047;-76
2021/05/24 05:45:38;;;;;;;5.83;2.70;;;;;;;12.15;100.00;99595.72;1601678;89;20996;-74
2021/05/24 05:48:05;;;;;;;7.47;2.90;;;;;;;12.19;100.00;99603.56;1601180;89;21618;-72
2021/05/24 05:50:32;;;;;;;7.67;3.02;;;;;;;12.23;100.00;99604.53;1588860;90;20973;-69
2021/05/24 05:52:59;;;;;;;7.35;3.15;;;;;;;12.26;100.00;99606.64;1601660;89;21646;-71
2021/05/24 05:55:26;;;;;;;5.83;3.12;;;;;;;12.27;99.71;99610.20;1601593;88;21048;-70
2021/05/24 05:57:52;;;;;;;6.92;3.12;;;;;;;12.27;98.95;99622.58;1601178;89;21620;-71
2021/05/24 06:00:20;;;;;;;5.90;2.90;;;;;;;12.23;98.80;99619.67;1575628;90;22217;-71
2021/05/24 06:02:47;;;;;;;14.70;4.25;;;;;;;12.23;98.75;99619.67;1601724;88;20944;-70
2021/05/24 06:05:13;;;;;;;9.65;2.62;;;;;;;12.26;99.09;99624.52;1601449;88;21021;-70
2021/05/24 06:07:41;;;;;;;5.95;2.80;;;;;;;12.33;99.31;99628.98;1601559;89;20948;-70
2021/05/24 06:10:12;;;;;;;7.35;2.87;;;;;;;12.42;99.31;99638.60;1601586;89;20944;-70
2021/05/24 06:12:39;;;;;;;4.17;2.40;;;;;;;12.52;99.23;99644.59;1601689;89;21779;-69
2021/05/24 06:15:07;;;;;;;4.75;2.05;;;;;;;12.63;98.54;99645.63;1601461;89;20961;-70
2021/05/24 06:17:33;;;;;;;5.08;2.30;;;;;;;12.72;97.33;99651.90;1576217;91;21014;-68
2021/05/24 06:20:00;;;;;;;4.65;1.65;;;;;;;12.76;97.13;99654.23;1574390;91;21105;-69
2021/05/24 06:22:27;;;;;;;5.22;2.45;;;;;;;12.83;97.44;99658.11;1574901;91;20981;-70
2021/05/24 06:24:54;;;;;;;5.00;2.00;;;;;;;12.89;96.33;99655.42;1562834;91;21082;-71
2021/05/24 06:27:20;;;;;;;3.77;1.87;;;;;;;12.92;95.91;99660.04;1600722;88;21163;-70
2021/05/24 06:29:47;;;;;;;4.12;1.90;;;;;;;12.96;96.02;99663.75;1601323;88;20960;-69
2021/05/24 06:32:13;;;;;;;5.72;2.05;;;;;;;13.00;95.61;99668.85;1595779;88;21000;-68
2021/05/24 06:34:40;;;;;;;5.22;2.20;;;;;;;13.03;95.76;99676.46;1601576;89;21033;-70
2021/05/24 06:37:06;;;;;;;6.83;2.60;;;;;;;13.07;95.91;99680.18;1601464;88;21079;-70
2021/05/24 06:39:33;;;;;;;4.35;2.15;;;;;;;13.15;96.00;99682.09;1601530;89;21563;-69
2021/05/24 06:42:00;;;;;;;4.67;2.05;;;;;;;13.22;96.31;99682.44;1601282;89;20965;-68
2021/05/24 06:44:26;;;;;;;7.87;2.35;;;;;;;13.37;96.19;99681.05;1601493;89;20985;-69
2021/05/24 06:46:53;;;;;;;5.62;2.47;;;;;;;13.42;93.75;99684.44;1601414;88;20948;-70
2021/05/24 06:49:19;;;;;;;3.72;2.00;;;;;;;13.50;95.09;99692.43;1601432;89;21070;-68
2021/05/24 06:51:47;;;;;;;3.80;2.20;;;;;;;13.68;95.46;99693.16;1601481;89;20924;-68
2021/05/24 06:54:14;;;;;;;3.37;2.17;;;;;;;13.88;95.38;99693.75;1576569;91;21602;-68
2021/05/24 06:56:41;;;;;;;4.15;1.90;;;;;;;14.02;93.37;99698.45;1601630;89;21040;-69
2021/05/24 06:59:07;;;;;;;4.72;2.00;;;;;;;14.07;92.41;99700.20;1601554;89;20961;-69
2021/05/24 07:01:36;;;;;;;7.05;2.12;;;;;;;14.13;92.45;99698.87;1583934;89;21135;-72
2021/05/24 07:04:03;;;;;;;6.12;2.22;;;;;;;14.19;91.44;99694.77;1601566;89;20952;-69
2021/05/24 07:06:29;;;;;;;11.50;2.75;;;;;;;14.23;90.56;99703.99;1601520;89;20953;-69
2021/05/24 07:08:56;;;;;;;2.55;1.52;;;;;;;14.20;89.75;99712.95;1601620;89;20969;-68
2021/05/24 07:11:23;;;;;;;4.40;1.90;;;;;;;14.17;89.66;99713.62;1601530;89;20992;-71
2021/05/24 07:13:51;;;;;;;4.53;1.72;;;;;;;14.14;89.32;99718.42;1592843;89;21137;-72
2021/05/24 07:16:19;;;;;;;4.87;1.85;;;;;;;14.10;88.82;99717.48;1603117;89;21037;-69
2021/05/24 07:18:46;;;;;;;2.77;1.40;;;;;;;14.03;88.16;99719.96;1596236;88;21538;-72
2021/05/24 07:21:12;;;;;;;3.70;1.82;;;;;;;13.94;87.46;99726.09;1597952;89;21075;-69
2021/05/24 07:23:39;;;;;;;3.80;2.22;;;;;;;13.89;88.06;99729.86;1593162;89;21108;-71
2021/05/24 07:26:05;;;;;;;6.87;2.70;;;;;;;13.84;87.88;99728.70;1603519;89;21085;-72
2021/05/24 07:28:32;;;;;;;3.83;2.12;;;;;;;13.82;88.67;99730.41;1590806;89;21050;-72
2021/05/24 07:30:59;;;;;;;3.17;1.82;;;;;;;13.87;88.73;99724.67;1590998;90;21081;-73
2021/05/24 07:33:25;;;;;;;8.45;2.02;;;;;;;13.96;87.81;99723.81;1591836;90;21556;-73
2021/05/24 07:35:53;;;;;;;4.25;1.77;;;;;;;14.02;87.19;99721.10;1601570;89;20945;-73
2021/05/24 07:38:20;;;;;;;6.50;2.12;;;;;;;14.05;86.99;99721.24;1601413;89;21521;-73
2021/05/24 07:40:46;;;;;;;10.35;2.42;;;;;;;14.15;87.51;99721.42;1601412;89;20920;-73
2021/05/24 07:43:12;;;;;;;2.77;1.98;;;;;;;14.31;85.89;99719.69;1601342;89;20984;-71
2021/05/24 07:45:41;;;;;;;3.87;1.80;;;;;;;14.38;85.33;99706.16;1601346;89;21036;-70
2021/05/24 07:48:08;;;;;;;3.37;1.50;;;;;;;14.56;86.50;99720.64;1599801;89;21063;-68
2021/05/24 07:50:34;;;;;;;3.37;1.42;;;;;;;14.79;85.84;99723.84;1603882;89;21030;-68
2021/05/24 07:53:02;;;;;;;9.90;3.17;;;;;;;15.03;84.61;99733.59;1564953;91;21048;-67
2021/05/24 07:55:29;;;;;;;3.27;1.42;;;;;;;15.24;83.61;99735.49;1590056;89;21578;-71
2021/05/24 07:57:55;;;;;;;3.42;1.42;;;;;;;15.46;83.24;99740.03;1598983;88;21139;-68
2021/05/24 08:00:26;;;;;;;2.42;1.35;;;;;;;15.68;83.16;99755.98;1572733;91;21080;-72
2021/05/24 08:02:50;;;;;;;4.10;1.40;;;;;;;15.89;79.61;99747.58;1598962;89;21915;-71
2021/05/24 08:05:17;;;;;;;2.47;1.17;;;;;;;16.05;78.76;99754.03;1572914;91;20973;-69
2021/05/24 08:07:44;;;;;;;4.25;1.55;;;;;;;16.29;78.10;99763.67;1599385;89;21064;-71
2021/05/24 08:10:15;;;;;;;2.83;1.30;;;;;;;16.58;75.65;99758.43;1573184;91;21603;-69
2021/05/24 08:12:45;;;;;;;3.37;0.90;;;;;;;16.82;72.86;99763.91;1597837;89;21514;-71
2021/05/24 08:15:19;;;;;;;2.20;1.05;;;;;;;16.96;70.65;99771.83;1573861;91;21121;-69
2021/05/24 08:17:46;;;;;;;1.40;0.90;;;;;;;17.04;72.40;99779.77;1597908;89;21550;-70
2021/05/24 08:20:15;;;;;;;1.60;1.00;;;;;;;17.18;70.07;99764.91;1573765;91;20996;-70
2021/05/24 08:22:42;;;;;;;1.37;0.80;;;;;;;17.29;68.96;99779.88;1600195;89;21019;-70
2021/05/24 08:25:11;;;;;;;3.70;0.98;;;;;;;17.37;69.15;99787.80;1574345;91;20961;-69
2021/05/24 08:27:38;;;;;;;1.02;0.70;;;;;;;17.56;67.97;99788.50;1603863;89;21092;-72
2021/05/24 08:30:08;;;;;;;2.47;0.90;;;;;;;17.66;67.25;99796.33;1608786;89;20944;-70
2021/05/24 08:32:34;;;;;;;3.17;0.70;;;;;;;17.72;68.83;99801.27;1608899;89;21071;-69
2021/05/24 08:35:02;;;;;;;1.57;0.68;;;;;;;17.92;66.62;99810.47;1608954;89;21618;-69
2021/05/24 08:37:30;;;;;;;1.47;0.70;;;;;;;17.97;63.36;99808.81;1608816;89;20932;-69
2021/05/24 08:39:56;;;;;;;1.40;0.88;;;;;;;17.93;62.40;99812.66;1608843;89;21089;-70
2021/05/24 08:42:27;;;;;;;2.15;0.72;;;;;;;17.92;62.92;99820.19;1609840;89;21032;-70
2021/05/24 08:44:51;;;;;;;1.90;0.60;;;;;;;17.85;62.89;99810.91;1607846;87;21004;-75
2021/05/24 08:47:22;;;;;;;2.55;1.10;;;;;;;17.72;63.09;99824.06;1608499;89;20928;-75
2021/05/24 08:49:48;;;;;;;1.60;0.88;;;;;;;17.48;62.21;99818.84;1608814;89;21559;-73
2021/05/24 08:52:15;;;;;;;3.08;0.80;;;;;;;17.36;64.53;99820.28;1592088;90;21495;-73
2021/05/24 08:54:41;;;;;;;2.45;0.80;;;;;;;17.41;64.13;99823.38;1608607;89;21055;-71
2021/05/24 08:57:08;;;;;;;1.02;0.65;;;;;;;17.44;63.37;99812.38;1608902;89;20984;-72
2021/05/24 08:59:34;;;;;;;2.77;0.70;;;;;;;17.47;63.30;99823.36;1592035;90;21045;-73
2021/05/24 09:02:01;;;;;;;5.30;0.70;;;;;;;17.47;62.87;99824.16;1609506;89;21012;-69
2021/05/24 09:04:44;;;;;;;3.22;0.62;;;;;;;17.39;63.27;99834.84;1609070;89;21001;-72
2021/05/24 09:07:12;;;;;;;1.10;0.80;;;;;;;17.23;62.61;99842.92;1578485;89;21005;-71
2021/05/24 09:09:39;;;;;;;2.87;0.75;;;;;;;16.96;62.95;99848.09;1590856;90;21537;-74
2021/05/24 09:12:19;;;;;;;1.55;1.00;;;;;;;16.70;62.86;99854.64;1591071;90;21126;-69
2021/05/24 09:14:38;;;;;;;2.98;1.02;;;;;;;16.44;64.21;99853.02;1590288;90;20979;-73
2021/05/24 09:17:06;;;;;;;1.20;0.88;;;;;;;16.26;64.10;99852.20;1592072;88;21522;-72
2021/05/24 09:19:38;;;;;;;3.45;1.00;;;;;;;16.12;65.40;99863.08;1591684;90;20999;-72
2021/05/24 09:22:08;;;;;;;1.37;0.78;;;;;;;16.09;67.85;99871.27;1608496;89;21594;-70
2021/05/24 09:24:42;;;;;;;1.95;0.90;;;;;;;16.09;67.85;99871.27;1608319;87;21004;-71
2021/05/24 09:27:30;;;;;;;1.37;1.00;;;;;;;16.23;67.87;99869.52;1590537;90;20997;-70
2021/05/24 09:29:59;;;;;;;3.17;1.07;;;;;;;16.39;67.81;99874.60;1608846;87;21113;-70
2021/05/24 09:32:29;;;;;;;1.95;0.98;;;;;;;16.65;66.91;99872.89;1608663;89;20977;-70
2021/05/24 09:35:04;;;;;;;1.87;1.00;;;;;;;16.86;66.46;99878.27;1608698;89;21071;-70
2021/05/24 09:37:40;;;;;;;2.72;0.90;;;;;;;17.09;66.37;99887.11;1588370;89;21023;-70
2021/05/24 09:40:22;;;;;;;4.03;1.15;;;;;;;17.22;64.45;99894.02;1608801;89;20961;-72
2021/05/24 09:42:49;;;;;;;2.37;1.20;;;;;;;17.29;64.80;99893.64;1606306;89;21134;-72
2021/05/24 09:45:18;;;;;;;1.80;0.93;;;;;;;17.27;63.23;99897.93;1580105;89;20983;-70
2021/05/24 09:47:45;;;;;;;4.15;1.05;;;;;;;17.16;63.67;99899.81;1580145;90;21108;-70
2021/05/24 09:50:16;;;;;;;2.40;0.82;;;;;;;17.06;64.16;99903.64;1605218;89;21605;-71
2021/05/24 09:52:44;;;;;;;5.80;1.00;;;;;;;16.97;62.85;99895.45;1580361;90;21147;-71
2021/05/24 09:55:16;;;;;;;3.85;0.90;;;;;;;16.87;64.28;99895.94;1580071;90;21092;-70
2021/05/24 09:58:00;;;;;;;1.45;1.00;;;;;;;16.78;64.55;99904.96;1580036;90;21092;-70
2021/05/24 10:00:40;;;;;;;1.30;0.90;;;;;;;16.62;64.76;99902.66;1580756;90;21136;-70
2021/05/24 10:03:01;;;;;;;1.65;0.82;;;;;;;16.47;64.59;99900.81;1568717;90;21136;-70
2021/05/24 10:05:46;;;;;;;5.00;0.98;;;;;;;16.25;65.32;99901.26;1608259;89;21123;-71
2021/05/24 10:08:13;;;;;;;1.57;0.90;;;;;;;16.07;65.44;99906.23;1608296;87;21085;-70
2021/05/24 10:10:44;;;;;;;1.90;0.78;;;;;;;15.94;65.32;99892.70;1607551;89;21017;-71
2021/05/24 10:13:10;;;;;;;1.50;0.90;;;;;;;16.11;67.39;99894.70;1589040;90;21698;-70
2021/05/24 10:15:41;;;;;;;5.47;1.20;;;;;;;16.75;67.69;99892.60;1605884;89;21645;-70
2021/05/24 10:18:09;;;;;;;1.23;0.80;;;;;;;17.56;65.80;99891.20;1590208;90;21193;-71
2021/05/24 10:20:36;;;;;;;1.30;0.75;;;;;;;18.35;62.37;99892.12;1607688;89;21136;-71
2021/05/24 10:23:02;;;;;;;3.30;1.00;;;;;;;18.98;61.12;99891.44;1607545;89;21700;-70
2021/05/24 10:25:29;;;;;;;3.00;0.95;;;;;;;19.51;56.75;99893.17;1607661;89;21032;-71
2021/05/24 10:28:00;;;;;;;1.27;0.80;;;;;;;19.86;55.74;99899.19;1591413;89;21092;-71
2021/05/24 10:30:27;;;;;;;2.35;0.85;;;;;;;20.02;54.57;99907.66;1592292;90;21087;-70
2021/05/24 10:32:58;;;;;;;1.40;0.90;;;;;;;19.94;54.09;99912.08;1592134;89;21120;-70
2021/05/24 10:35:38;;;;;;;3.85;1.07;;;;;;;19.91;54.15;99912.81;1582561;90;21048;-70
2021/05/24 10:38:27;;;;;;;0.98;0.65;;;;;;;20.09;54.41;99904.20;1592406;90;21011;-70
2021/05/24 10:41:12;;;;;;;1.65;0.57;;;;;;;20.41;53.46;99894.41;1592264;90;21140;-70
2021/05/24 10:43:46;;;;;;;2.95;0.65;;;;;;;20.55;53.01;99893.84;1591915;90;21053;-70
2021/05/24 10:46:32;;;;;;;2.75;0.75;;;;;;;20.49;50.78;99887.55;1587627;90;21063;-69
2021/05/24 10:49:14;;;;;;;2.65;0.68;;;;;;;20.50;49.45;99889.97;1593512;90;20896;-70
2021/05/24 10:51:57;;;;;;;2.62;1.20;;;;;;;20.52;49.78;99892.39;1593878;90;21003;-70
2021/05/24 10:54:30;;;;;;;1.00;0.57;;;;;;;20.76;49.83;99896.16;1593428;88;20976;-70
2021/05/24 10:57:05;;;;;;;1.37;0.80;;;;;;;20.98;49.87;99896.66;1593549;89;21526;-70
2021/05/24 10:59:45;;;;;;;0.78;0.50;;;;;;;21.20;49.49;99906.73;1605432;89;21719;-71
2021/05/24 11:02:15;;;;;;;1.17;0.40;;;;;;;21.35;46.84;99894.00;1593477;90;21645;-70
2021/05/24 11:04:57;;;;;;;4.80;0.72;;;;;;;21.46;45.66;99901.09;1592783;88;21625;-71
2021/05/24 11:07:38;;;;;;;1.45;0.55;;;;;;;21.51;45.06;99898.55;1605059;89;21029;-71
2021/05/24 11:10:18;;;;;;;1.37;0.65;;;;;;;21.60;46.29;99894.28;1592881;89;21055;-70
2021/05/24 11:12:56;;;;;;;1.60;0.68;;;;;;;21.58;44.30;99886.06;1592286;88;21095;-71
2021/05/24 11:15:34;;;;;;;1.12;0.50;;;;;;;21.52;45.82;99902.95;1604645;89;20982;-71
2021/05/24 11:18:09;;;;;;;1.32;0.60;;;;;;;21.58;45.36;99910.62;1592791;90;21075;-71
2021/05/24 11:21:03;;;;;;;3.40;1.02;;;;;;;21.68;46.23;99920.31;1604413;89;21621;-71
2021/05/24 11:23:59;;;;;;;1.57;0.60;;;;;;;21.75;44.56;99918.41;1593190;89;21088;-71
2021/05/24 11:26:18;;;;;;;4.17;0.70;;;;;;;21.93;45.03;99920.59;1602426;89;21169;-71
2021/05/24 11:29:13;;;;;;;8.10;0.80;;;;;;;22.13;44.17;99913.62;1595563;89;21072;-71
2021/05/24 11:31:47;;;;;;;4.85;0.75;;;;;;;22.34;45.21;99916.62;1600419;88;21044;-71
2021/05/24 11:34:36;;;;;;;3.67;0.98;;;;;;;22.64;43.58;99916.45;1600627;89;21059;-71
2021/05/24 11:37:07;;;;;;;1.10;0.70;;;;;;;22.86;43.63;99912.44;1600804;89;21575;-70
2021/05/24 11:39:39;;;;;;;0.78;0.60;;;;;;;22.96;42.24;99915.91;1600725;88;21105;-71
2021/05/24 11:42:10;;;;;;;2.00;0.60;;;;;;;22.76;41.77;99922.93;1601094;89;21050;-70